Terminal Aerodrome Forecast
Issued by NWS

Home | Current Version | Previous Version | Text Only | Print | Product List | Glossary On
Versions: 1 2 3 4 5 6 7 8 9 10 11 12 13 14 15
000
FTUS42 TJSJ 210500
TAFNCM
TAF
TNCM 210524Z 2106/2206 10010KT P6SM FEW021
     FM211300 10015KT P6SM FEW022
     FM212300 09010KT P6SM SCT022=

USA.gov is the U.S. government's official web portal to all federal, state and local government web resources and services.